Huvudsida
METAR-TAF:

METAR-TAF

Flygplatser :

Thule Air Base

Thule, Grönland

latitud: 76-32N, longitud: 068-42W, höjd: 77 m

Aktuellt väderrapport

Denna rapport gjordes för 1 timme och 1 minuter sedan, klockan 05:56 UTC
Vind 6 kt från ost
Temperatur -26°C
Fuktighet 69%
Tryck 989 hPa
Sikt 10 km eller mer
Klar himmel

METAR: BGTL 260556Z AUTO 09006KT 9999 CLR M26/M30 A2920 RMK AO2 SLP880 T12581298 11221 21286 52020 TSNO $

Tid: 03:57 (06:57 UTC)

Väderprognos

Denna rapport gjordes för 13 timmar och 57 minuter sedan, klockan 17:00 UTC
Prognos gäller från 25 kl. 17 UTC till 26 kl. 23 UTC
Vind 9 kt från ost, varierande mellan ost/nordost och syd
Sikt 10 km eller mer
Klar himmel
Blir
från 26 kl. 11 UTC till 26 kl. 12 UTC
Vind 9 kt från ost
Sikt: 2611 m
Spridda moln på en höjd av 7000 ft

TAF: BGTL 251700Z 2517/2623 10009KT 9999 SKC QNH2904INS WND 070V170 BECMG 2611/2612 10009KT 9999 SCT070 QNH2925INS TXM18/2518Z TNM32/2607Z LAST NO AMDS AFT 2519 NEXT 2611

Aktuella väderrapporter och prognoser från 4000 flygplatser (METAR- och TAF-rapporter).

De tillgängliga stationerna syns som gula och röda prickar på kartan.

För musen över prickarna för att se namnen på stationerna.

Klicka sedan för att få väderrapporter och prognoser.

För att ändra kartan: Klicka på de gröna knapparna med ett svart kors på för att zooma in; den gröna knappen med ett streck på för att zooma ut; eller på de gröna pilarna för angränsande kartor.


METAR-TAF: